createdAt,value
2019-03-26T00:02:00.070Z,101807.05
2019-03-26T00:04:36.326Z,101814.73
2019-03-26T00:07:10.970Z,101819.44
2019-03-26T00:09:45.684Z,101825.88
2019-03-26T00:12:20.303Z,101825.47
2019-03-26T00:14:55.179Z,101824.59
2019-03-26T00:17:31.507Z,101831.02
2019-03-26T00:20:06.344Z,101831.03
2019-03-26T00:22:40.972Z,101832.31
2019-03-26T00:25:15.911Z,101845.14
2019-03-26T00:27:50.454Z,101839.14
2019-03-26T00:30:25.460Z,101834.86
2019-03-26T00:33:00.090Z,101844.25
2019-03-26T00:35:34.593Z,101841.69
2019-03-26T00:38:09.168Z,101841.67
2019-03-26T00:40:44.151Z,101841.20
2019-03-26T00:43:18.796Z,101839.95
2019-03-26T00:45:53.323Z,101831.77
2019-03-26T00:48:28.199Z,101839.91
2019-03-26T00:51:02.728Z,101840.30
2019-03-26T00:53:37.303Z,101836.02
2019-03-26T00:56:12.136Z,101837.72
2019-03-26T00:58:46.761Z,101842.86
2019-03-26T01:01:21.286Z,101844.11
2019-03-26T01:03:56.243Z,101837.29
2019-03-26T01:06:30.905Z,101844.52
2019-03-26T01:09:07.625Z,101846.24
2019-03-26T01:11:42.136Z,101847.04
2019-03-26T01:14:16.874Z,101846.59
2019-03-26T01:16:51.398Z,101852.55
2019-03-26T01:19:25.956Z,101856.94
2019-03-26T01:22:00.961Z,101851.75
2019-03-26T01:24:37.427Z,101851.29
2019-03-26T01:27:12.050Z,101854.73
2019-03-26T01:29:48.417Z,101858.14
2019-03-26T01:32:23.143Z,101855.13
2019-03-26T01:34:57.873Z,101854.72
2019-03-26T01:37:32.336Z,101862.41
2019-03-26T01:40:09.281Z,101861.16
2019-03-26T01:42:43.804Z,101859.44
2019-03-26T01:45:18.540Z,101863.75
2019-03-26T01:47:53.057Z,101868.03
2019-03-26T01:50:29.422Z,101861.65
2019-03-26T01:53:03.948Z,101862.97
2019-03-26T01:55:38.633Z,101862.93
2019-03-26T01:58:13.405Z,101861.66
2019-03-26T02:00:48.244Z,101863.38
2019-03-26T02:03:24.601Z,101860.79
2019-03-26T02:05:59.635Z,101868.52
2019-03-26T02:08:34.142Z,101864.23
2019-03-26T02:11:08.814Z,101856.98
2019-03-26T02:13:43.722Z,101859.95
2019-03-26T02:16:18.249Z,101867.69
2019-03-26T02:18:53.156Z,101868.94
2019-03-26T02:21:27.666Z,101871.94
2019-03-26T02:24:02.130Z,101863.80
2019-03-26T02:26:38.491Z,101863.38
2019-03-26T02:29:13.427Z,101858.69
2019-03-26T02:31:48.619Z,101860.31
2019-03-26T02:34:23.089Z,101862.89
2019-03-26T02:36:57.663Z,101865.45
2019-03-26T02:39:33.671Z,101871.48
2019-03-26T02:42:08.350Z,101872.30
2019-03-26T02:44:42.924Z,101871.43
2019-03-26T02:47:17.794Z,101879.58
2019-03-26T02:49:52.485Z,101872.73
2019-03-26T02:52:28.134Z,101871.05
2019-03-26T02:55:02.742Z,101871.43
2019-03-26T02:57:37.291Z,101865.45
2019-03-26T03:00:13.426Z,101869.69
2019-03-26T03:02:50.078Z,101869.22
2019-03-26T03:05:35.293Z,101870.20
2019-03-26T03:08:01.072Z,101873.16
2019-03-26T03:10:36.972Z,101872.72
2019-03-26T03:13:11.547Z,101867.16
2019-03-26T03:15:46.026Z,101864.17
2019-03-26T03:18:22.586Z,101863.27
2019-03-26T03:20:57.061Z,101861.16
2019-03-26T03:23:32.657Z,101862.90
2019-03-26T03:26:07.081Z,101860.31
2019-03-26T03:28:41.784Z,101863.34
2019-03-26T03:31:16.338Z,101865.89
2019-03-26T03:33:50.959Z,101866.29
2019-03-26T03:36:25.587Z,101865.94
2019-03-26T03:39:00.574Z,101863.37
2019-03-26T03:41:35.065Z,101865.42
2019-03-26T03:44:10.014Z,101865.89
2019-03-26T03:46:46.403Z,101871.44
2019-03-26T03:49:25.881Z,101863.78
2019-03-26T03:52:03.993Z,101867.21
2019-03-26T03:54:43.032Z,101859.05
2019-03-26T03:57:21.205Z,101860.37
2019-03-26T03:59:58.821Z,101869.36
2019-03-26T04:02:33.571Z,101867.63
2019-03-26T04:05:08.279Z,101868.84
2019-03-26T04:07:42.901Z,101869.28
2019-03-26T04:10:19.062Z,101867.61
2019-03-26T04:12:53.792Z,101868.45
2019-03-26T04:15:28.312Z,101865.89
2019-03-26T04:18:03.047Z,101871.88
2019-03-26T04:20:39.002Z,101862.91
2019-03-26T04:23:13.426Z,101857.73
2019-03-26T04:25:52.710Z,101857.75
2019-03-26T04:28:27.283Z,101859.44
2019-03-26T04:31:01.746Z,101866.30
2019-03-26T04:33:36.442Z,101861.55
2019-03-26T04:36:24.877Z,101858.14
2019-03-26T04:38:47.430Z,101862.84
2019-03-26T04:41:23.636Z,101865.42
2019-03-26T04:43:59.855Z,101862.91
2019-03-26T04:46:35.000Z,101868.95
2019-03-26T04:49:10.210Z,101867.17
2019-03-26T04:51:44.758Z,101865.47
2019-03-26T04:54:19.315Z,101877.03
2019-03-26T04:56:53.819Z,101869.77
2019-03-26T04:59:28.536Z,101866.28
2019-03-26T05:02:02.965Z,101864.23
2019-03-26T05:04:37.517Z,101869.36
2019-03-26T05:07:11.950Z,101862.91
2019-03-26T05:09:46.459Z,101868.48
2019-03-26T05:12:21.150Z,101863.77
2019-03-26T05:14:55.694Z,101870.19
2019-03-26T05:17:30.201Z,101868.03
2019-03-26T05:20:04.998Z,101868.95
2019-03-26T05:22:39.660Z,101859.96
2019-03-26T05:25:14.283Z,101866.34
2019-03-26T05:27:49.123Z,101867.27
2019-03-26T05:30:24.356Z,101874.96
2019-03-26T05:33:00.297Z,101875.32
2019-03-26T05:35:36.629Z,101879.19
2019-03-26T05:38:11.183Z,101877.03
2019-03-26T05:40:46.542Z,101877.03
2019-03-26T05:43:22.155Z,101872.70
2019-03-26T05:45:56.598Z,101872.72
2019-03-26T05:48:31.411Z,101867.13
2019-03-26T05:51:05.965Z,101864.97
2019-03-26T05:53:40.574Z,101863.23
2019-03-26T05:56:16.460Z,101864.54
2019-03-26T05:58:50.979Z,101861.97
2019-03-26T06:01:25.620Z,101864.89
2019-03-26T06:04:02.523Z,101871.33
2019-03-26T06:06:37.172Z,101871.74
2019-03-26T06:09:12.032Z,101877.25
2019-03-26T06:11:46.660Z,101870.79
2019-03-26T06:14:21.291Z,101880.61
2019-03-26T06:16:55.912Z,101863.55
2019-03-26T06:19:30.856Z,101864.30
2019-03-26T06:22:05.468Z,101860.87
2019-03-26T06:24:40.520Z,101857.42
2019-03-26T06:27:15.084Z,101865.52
2019-03-26T06:29:49.467Z,101869.83
2019-03-26T06:32:24.330Z,101870.23
2019-03-26T06:34:58.914Z,101862.33
2019-03-26T06:37:33.352Z,101859.58
2019-03-26T06:40:10.787Z,101865.42
2019-03-26T06:42:45.412Z,101856.27
2019-03-26T06:45:19.991Z,101864.34
2019-03-26T06:47:54.533Z,101857.89
2019-03-26T06:50:29.242Z,101855.27
2019-03-26T06:53:03.813Z,101857.33
2019-03-26T06:55:41.067Z,101862.93
2019-03-26T06:58:17.865Z,101864.98
2019-03-26T07:00:53.990Z,101869.41
2019-03-26T07:03:28.618Z,101878.31
2019-03-26T07:06:03.469Z,101890.16
2019-03-26T07:08:39.826Z,101891.78
2019-03-26T07:11:15.424Z,101885.25
2019-03-26T07:13:51.734Z,101888.80
2019-03-26T07:16:26.294Z,101882.59
2019-03-26T07:19:01.172Z,101893.79
2019-03-26T07:21:48.871Z,101893.33
2019-03-26T07:24:12.058Z,101888.16
2019-03-26T07:26:47.249Z,101890.90
2019-03-26T07:29:23.285Z,101890.52
2019-03-26T07:31:58.271Z,101887.16
2019-03-26T07:34:34.675Z,101885.38
2019-03-26T07:37:10.990Z,101893.34
2019-03-26T07:39:45.564Z,101900.07
2019-03-26T07:42:20.503Z,101897.01
2019-03-26T07:44:55.059Z,101895.75
2019-03-26T07:47:29.543Z,101888.69
2019-03-26T07:50:03.953Z,101890.22
2019-03-26T07:52:39.911Z,101899.01
2019-03-26T07:55:14.732Z,101895.58
2019-03-26T07:57:50.966Z,101894.74
2019-03-26T08:00:40.504Z,101888.16
2019-03-26T08:03:15.120Z,101904.63
2019-03-26T08:05:49.722Z,101905.13
2019-03-26T08:08:24.366Z,101910.56
2019-03-26T08:11:00.221Z,101903.55
2019-03-26T08:13:37.565Z,101903.57
2019-03-26T08:16:12.137Z,101899.17
2019-03-26T08:18:47.861Z,101903.34
2019-03-26T08:21:22.389Z,101900.25
2019-03-26T08:23:57.259Z,101900.27
2019-03-26T08:26:31.848Z,101898.05
2019-03-26T08:29:06.906Z,101891.39
2019-03-26T08:31:41.532Z,101888.63
2019-03-26T08:34:16.058Z,101888.93
2019-03-26T08:36:50.918Z,101889.67
2019-03-26T08:39:27.587Z,101890.52
2019-03-26T08:42:02.400Z,101895.36
2019-03-26T08:44:36.915Z,101894.27
2019-03-26T08:47:13.265Z,101889.91
2019-03-26T08:49:49.897Z,101902.53
2019-03-26T08:52:26.105Z,101897.02
2019-03-26T08:55:04.358Z,101888.38
2019-03-26T08:57:38.955Z,101894.20
2019-03-26T09:00:15.131Z,101888.35
2019-03-26T09:02:49.708Z,101894.09
2019-03-26T09:05:24.468Z,101879.92
2019-03-26T09:07:59.186Z,101876.85
2019-03-26T09:10:33.773Z,101872.52
2019-03-26T09:13:08.471Z,101876.79
2019-03-26T09:15:43.070Z,101868.44
2019-03-26T09:18:18.069Z,101859.63
2019-03-26T09:20:52.638Z,101857.73
2019-03-26T09:23:27.370Z,101858.67
2019-03-26T09:26:14.258Z,101858.61
2019-03-26T09:28:48.789Z,101855.31
2019-03-26T09:31:25.574Z,101845.87
2019-03-26T09:34:00.096Z,101844.23
2019-03-26T09:36:34.738Z,101841.51
2019-03-26T09:39:10.498Z,101844.34
2019-03-26T09:41:47.042Z,101838.39
2019-03-26T09:44:21.950Z,101830.09
2019-03-26T09:46:56.610Z,101839.03
2019-03-26T09:49:31.333Z,101835.58
2019-03-26T09:52:06.251Z,101818.25
2019-03-26T09:54:41.083Z,101814.26
2019-03-26T09:57:15.608Z,101815.53
2019-03-26T09:59:50.088Z,101813.22
2019-03-26T10:02:24.780Z,101825.97
2019-03-26T10:04:59.611Z,101829.53
2019-03-26T10:07:34.344Z,101830.33
2019-03-26T10:10:09.731Z,101843.91
2019-03-26T10:12:44.424Z,101836.06
2019-03-26T10:15:19.109Z,101826.42
2019-03-26T10:17:54.020Z,101830.47
2019-03-26T10:20:29.720Z,101821.67
2019-03-26T10:23:04.386Z,101816.61
2019-03-26T10:25:39.053Z,101817.83
2019-03-26T10:28:13.632Z,101815.14
2019-03-26T10:30:48.313Z,101808.95
2019-03-26T10:33:22.976Z,101811.92
2019-03-26T10:35:57.898Z,101812.73
2019-03-26T10:38:32.533Z,101816.18
2019-03-26T10:41:09.751Z,101821.23
2019-03-26T10:43:46.243Z,101825.53
2019-03-26T10:46:21.210Z,101829.99
2019-03-26T10:48:57.633Z,101832.70
2019-03-26T10:51:32.199Z,101825.56
2019-03-26T10:54:06.959Z,101818.52
2019-03-26T10:56:41.968Z,101815.27
2019-03-26T10:59:17.144Z,101819.23
2019-03-26T11:01:51.749Z,101826.27
2019-03-26T11:04:26.459Z,101832.66
2019-03-26T11:07:00.983Z,101827.95
2019-03-26T11:09:37.517Z,101834.61
2019-03-26T11:12:12.798Z,101832.98
2019-03-26T11:14:47.356Z,101826.16
2019-03-26T11:17:22.047Z,101831.38
2019-03-26T11:19:57.017Z,101824.88
2019-03-26T11:22:31.679Z,101826.30
2019-03-26T11:25:07.125Z,101816.37
2019-03-26T11:27:42.031Z,101803.02
2019-03-26T11:30:16.970Z,101798.69
2019-03-26T11:32:51.650Z,101789.75
2019-03-26T11:35:26.174Z,101795.63
2019-03-26T11:38:00.912Z,101785.22
2019-03-26T11:40:35.436Z,101797.56
2019-03-26T11:43:09.930Z,101793.59
2019-03-26T11:45:45.746Z,101792.63
2019-03-26T11:48:21.874Z,101790.22
2019-03-26T11:50:56.537Z,101789.34
2019-03-26T11:53:31.339Z,101776.61
2019-03-26T11:56:06.642Z,101777.76
2019-03-26T11:58:42.535Z,101774.52
2019-03-26T12:01:17.573Z,101769.58
2019-03-26T12:03:53.587Z,101774.89
2019-03-26T12:06:29.621Z,101773.52
2019-03-26T12:09:06.910Z,101764.22
2019-03-26T12:11:41.791Z,101769.21
2019-03-26T12:14:16.830Z,101763.65
2019-03-26T12:16:51.887Z,101761.82
2019-03-26T12:19:27.165Z,101769.17
2019-03-26T12:22:02.080Z,101776.89
2019-03-26T12:24:38.431Z,101775.28
2019-03-26T12:27:12.980Z,101780.51
2019-03-26T12:29:47.549Z,101786.59
2019-03-26T12:32:22.327Z,101780.03
2019-03-26T12:34:57.936Z,101778.33
2019-03-26T12:37:33.107Z,101786.06
2019-03-26T12:40:09.596Z,101775.78
2019-03-26T12:42:45.313Z,101779.63
2019-03-26T12:45:20.032Z,101790.69
2019-03-26T12:47:54.679Z,101785.39
2019-03-26T12:50:32.042Z,101789.02
2019-03-26T12:53:05.641Z,101789.25
2019-03-26T12:55:41.094Z,101793.33
2019-03-26T12:58:15.714Z,101794.89
2019-03-26T13:00:50.933Z,101790.06
2019-03-26T13:03:25.579Z,101792.77
2019-03-26T13:06:00.107Z,101801.81
2019-03-26T13:08:34.783Z,101804.27
2019-03-26T13:11:09.265Z,101802.56
2019-03-26T13:13:44.395Z,101802.39
2019-03-26T13:16:22.365Z,101795.41
2019-03-26T13:18:57.023Z,101799.87
2019-03-26T13:21:32.033Z,101798.99
2019-03-26T13:24:06.701Z,101797.46
2019-03-26T13:26:42.652Z,101800.89
2019-03-26T13:29:17.621Z,101805.61
2019-03-26T13:31:54.290Z,101811.77
2019-03-26T13:34:28.987Z,101820.73
2019-03-26T13:37:03.746Z,101817.02
2019-03-26T13:39:38.463Z,101805.88
2019-03-26T13:42:13.296Z,101811.70
2019-03-26T13:44:47.943Z,101809.48
2019-03-26T13:47:24.673Z,101807.45
2019-03-26T13:49:59.618Z,101812.52
2019-03-26T13:52:34.397Z,101821.84
2019-03-26T13:55:09.291Z,101823.24
2019-03-26T13:57:44.290Z,101822.50
2019-03-26T14:00:33.385Z,101819.23
2019-03-26T14:03:08.641Z,101806.81
2019-03-26T14:05:43.269Z,101806.94
2019-03-26T14:08:17.957Z,101808.80
2019-03-26T14:10:52.359Z,101816.08
2019-03-26T14:13:27.412Z,101816.53
2019-03-26T14:16:01.930Z,101811.25
2019-03-26T14:18:37.016Z,101815.34
2019-03-26T14:21:12.212Z,101826.06
2019-03-26T14:23:48.481Z,101826.07
2019-03-26T14:26:23.209Z,101816.98
2019-03-26T14:28:59.567Z,101822.27
2019-03-26T14:31:36.885Z,101824.67
2019-03-26T14:34:11.591Z,101819.19
2019-03-26T14:36:46.215Z,101818.62
2019-03-26T14:39:22.450Z,101821.51
2019-03-26T14:41:58.400Z,101816.75
2019-03-26T14:44:33.079Z,101815.69
2019-03-26T14:47:07.721Z,101816.42
2019-03-26T14:49:45.119Z,101816.75
2019-03-26T14:52:20.649Z,101817.17
2019-03-26T14:54:55.267Z,101809.19
2019-03-26T14:57:29.676Z,101821.77
2019-03-26T15:00:04.153Z,101831.52
2019-03-26T15:02:38.892Z,101829.31
2019-03-26T15:05:15.742Z,101831.76
2019-03-26T15:07:50.449Z,101828.19
2019-03-26T15:10:27.013Z,101828.92
2019-03-26T15:13:03.491Z,101837.74
2019-03-26T15:15:38.099Z,101842.81
2019-03-26T15:18:12.771Z,101845.53
2019-03-26T15:20:47.660Z,101848.17
2019-03-26T15:23:22.320Z,101847.98
2019-03-26T15:25:58.426Z,101846.63
2019-03-26T15:28:34.762Z,101857.18
2019-03-26T15:31:09.442Z,101860.70
2019-03-26T15:33:44.720Z,101857.60
2019-03-26T15:36:19.399Z,101861.09
2019-03-26T15:38:54.038Z,101863.39
2019-03-26T15:41:30.339Z,101850.50
2019-03-26T15:44:05.509Z,101868.71
2019-03-26T15:46:40.222Z,101864.03
2019-03-26T15:49:15.046Z,101870.30
2019-03-26T15:51:49.643Z,101869.94
2019-03-26T15:54:24.365Z,101867.20
2019-03-26T15:56:59.118Z,101861.02
2019-03-26T15:59:33.669Z,101868.84
2019-03-26T16:02:08.541Z,101868.23
2019-03-26T16:04:45.833Z,101872.88
2019-03-26T16:07:20.616Z,101873.84
2019-03-26T16:09:55.266Z,101871.23
2019-03-26T16:12:40.553Z,101863.84
2019-03-26T16:15:07.473Z,101867.52
2019-03-26T16:18:03.124Z,101862.73
2019-03-26T16:20:38.465Z,101873.10
2019-03-26T16:23:13.265Z,101873.39
2019-03-26T16:25:49.041Z,101874.84
2019-03-26T16:28:25.549Z,101877.06
2019-03-26T16:31:00.959Z,101877.84
2019-03-26T16:33:35.448Z,101881.36
2019-03-26T16:36:09.820Z,101877.52
2019-03-26T16:38:44.289Z,101882.27
2019-03-26T16:41:18.729Z,101892.66
2019-03-26T16:43:53.509Z,101894.09
2019-03-26T16:46:28.062Z,101888.54
2019-03-26T16:49:02.520Z,101894.16
2019-03-26T16:51:38.842Z,101892.53
2019-03-26T16:54:14.561Z,101896.01
2019-03-26T16:56:49.179Z,101892.13
2019-03-26T16:59:23.894Z,101897.41
2019-03-26T17:01:59.306Z,101892.16
2019-03-26T17:04:34.185Z,101894.30
2019-03-26T17:07:10.233Z,101893.59
2019-03-26T17:09:45.251Z,101898.14
2019-03-26T17:12:19.928Z,101902.69
2019-03-26T17:14:54.556Z,101894.88
2019-03-26T17:17:31.394Z,101899.73
2019-03-26T17:20:07.833Z,101898.70
2019-03-26T17:22:42.392Z,101902.13
2019-03-26T17:25:17.036Z,101906.13
2019-03-26T17:27:51.581Z,101906.29
2019-03-26T17:30:26.166Z,101911.08
2019-03-26T17:33:02.531Z,101912.14
2019-03-26T17:35:37.315Z,101909.64
2019-03-26T17:38:13.349Z,101904.34
2019-03-26T17:40:48.050Z,101905.55
2019-03-26T17:43:22.595Z,101908.22
2019-03-26T17:45:57.322Z,101913.01
2019-03-26T17:48:32.599Z,101918.91
2019-03-26T17:51:07.267Z,101916.91
2019-03-26T17:53:42.349Z,101913.64
2019-03-26T17:56:16.941Z,101921.45
2019-03-26T17:58:51.975Z,101923.16
2019-03-26T18:01:26.889Z,101928.50
2019-03-26T18:04:01.562Z,101925.37
2019-03-26T18:06:36.479Z,101929.72
2019-03-26T18:09:12.402Z,101931.95
2019-03-26T18:11:47.051Z,101927.16
2019-03-26T18:14:23.519Z,101934.28
2019-03-26T18:16:59.577Z,101930.63
2019-03-26T18:19:34.615Z,101938.49
2019-03-26T18:22:09.648Z,101935.02
2019-03-26T18:24:45.262Z,101938.54
2019-03-26T18:27:19.778Z,101931.20
2019-03-26T18:29:54.362Z,101931.73
2019-03-26T18:32:30.792Z,101933.41
2019-03-26T18:35:05.949Z,101940.27
2019-03-26T18:37:40.588Z,101944.52
2019-03-26T18:40:17.080Z,101939.29
2019-03-26T18:42:51.934Z,101943.19
2019-03-26T18:45:26.638Z,101952.97
2019-03-26T18:48:04.456Z,101955.66
2019-03-26T18:50:41.199Z,101956.59
2019-03-26T18:53:19.083Z,101953.38
2019-03-26T18:55:53.868Z,101956.20
2019-03-26T18:58:30.865Z,101954.95
2019-03-26T19:01:05.581Z,101955.34
2019-03-26T19:03:40.497Z,101953.75
2019-03-26T19:06:18.050Z,101966.23
2019-03-26T19:08:53.345Z,101974.84
2019-03-26T19:11:28.297Z,101986.81
2019-03-26T19:14:05.031Z,101992.01
2019-03-26T19:16:41.375Z,101992.91
2019-03-26T19:19:17.429Z,101986.04
2019-03-26T19:21:52.259Z,101986.28
2019-03-26T19:24:32.117Z,101987.17
2019-03-26T19:27:07.758Z,101982.08
2019-03-26T19:29:42.283Z,101974.80
2019-03-26T19:32:18.864Z,101979.41
2019-03-26T19:34:54.346Z,101985.54
2019-03-26T19:37:32.305Z,101987.78
2019-03-26T19:40:12.812Z,101997.17
2019-03-26T19:42:47.570Z,102004.56
2019-03-26T19:45:22.295Z,101996.96
2019-03-26T19:47:57.740Z,102004.63
2019-03-26T19:50:35.582Z,101999.34
2019-03-26T19:53:10.861Z,102003.19
2019-03-26T19:55:45.944Z,102008.19
2019-03-26T19:58:21.290Z,102011.47
2019-03-26T20:00:56.055Z,102020.86
2019-03-26T20:03:48.091Z,102024.94
2019-03-26T20:06:24.893Z,102025.65
2019-03-26T20:08:59.544Z,102029.06
2019-03-26T20:11:35.292Z,102029.11
2019-03-26T20:14:13.075Z,102035.56
2019-03-26T20:16:49.329Z,102045.97
2019-03-26T20:19:24.187Z,102035.59
2019-03-26T20:21:59.130Z,102035.17
2019-03-26T20:24:34.564Z,102045.58
2019-03-26T20:27:10.874Z,102033.06
2019-03-26T20:29:45.723Z,102042.20
2019-03-26T20:32:21.382Z,102047.69
2019-03-26T20:34:58.461Z,102055.07
2019-03-26T20:37:36.384Z,102056.29
2019-03-26T20:40:12.556Z,102051.67
2019-03-26T20:42:55.236Z,102057.14
2019-03-26T20:45:29.929Z,102049.76
2019-03-26T20:48:04.816Z,102058.88
2019-03-26T20:50:39.431Z,102064.94
2019-03-26T20:53:14.063Z,102061.93
2019-03-26T20:55:54.682Z,102070.59
2019-03-26T20:58:27.123Z,102071.73
2019-03-26T21:01:03.908Z,102074.02
2019-03-26T21:03:39.593Z,102071.94
2019-03-26T21:06:14.452Z,102077.11
2019-03-26T21:08:49.193Z,102077.92
2019-03-26T21:11:23.966Z,102076.18
2019-03-26T21:13:58.642Z,102077.14
2019-03-26T21:16:33.220Z,102080.22
2019-03-26T21:19:07.931Z,102083.66
2019-03-26T21:21:45.084Z,102085.91
2019-03-26T21:24:20.035Z,102087.58
2019-03-26T21:26:56.172Z,102079.38
2019-03-26T21:29:33.748Z,102083.73
2019-03-26T21:32:08.779Z,102079.34
2019-03-26T21:34:43.416Z,102086.67
2019-03-26T21:37:18.265Z,102083.71
2019-03-26T21:39:53.227Z,102084.61
2019-03-26T21:42:28.237Z,102084.66
2019-03-26T21:45:02.823Z,102087.62
2019-03-26T21:47:37.554Z,102089.41
2019-03-26T21:50:12.349Z,102090.66
2019-03-26T21:52:47.015Z,102092.00
2019-03-26T21:55:21.524Z,102088.63
2019-03-26T21:57:57.904Z,102093.36
2019-03-26T22:00:34.178Z,102098.94
2019-03-26T22:03:10.596Z,102108.81
2019-03-26T22:05:47.803Z,102100.70
2019-03-26T22:08:21.590Z,102099.80
2019-03-26T22:10:56.278Z,102099.85
2019-03-26T22:13:30.639Z,102108.86
2019-03-26T22:16:05.162Z,102110.56
2019-03-26T22:18:39.642Z,102112.27
2019-03-26T22:21:14.295Z,102116.09
2019-03-26T22:23:50.347Z,102124.27
2019-03-26T22:26:25.049Z,102125.46
2019-03-26T22:28:59.672Z,102126.34
2019-03-26T22:31:34.244Z,102129.73
2019-03-26T22:34:08.752Z,102134.91
2019-03-26T22:36:43.400Z,102132.78
2019-03-26T22:39:19.999Z,102137.14
2019-03-26T22:41:56.031Z,102126.03
2019-03-26T22:44:31.848Z,102129.89
2019-03-26T22:47:06.614Z,102131.64
2019-03-26T22:49:42.815Z,102143.23
2019-03-26T22:52:17.458Z,102136.80
2019-03-26T22:54:52.131Z,102141.56
2019-03-26T22:57:26.732Z,102136.84
2019-03-26T23:00:01.305Z,102136.00
2019-03-26T23:02:35.804Z,102133.85
2019-03-26T23:05:11.471Z,102133.00
2019-03-26T23:07:46.071Z,102142.05
2019-03-26T23:10:21.840Z,102141.20
2019-03-26T23:12:56.563Z,102135.53
2019-03-26T23:15:31.395Z,102134.30
2019-03-26T23:18:06.275Z,102140.31
2019-03-26T23:20:41.052Z,102143.35
2019-03-26T23:23:15.571Z,102146.80
2019-03-26T23:25:51.552Z,102147.64
2019-03-26T23:28:26.106Z,102147.24
2019-03-26T23:31:02.150Z,102142.52
2019-03-26T23:33:36.696Z,102145.97
2019-03-26T23:36:11.267Z,102150.70
2019-03-26T23:38:45.986Z,102155.83
2019-03-26T23:41:22.050Z,102152.39
2019-03-26T23:43:58.266Z,102145.11
2019-03-26T23:46:32.848Z,102150.25
2019-03-26T23:49:07.476Z,102148.56
2019-03-26T23:51:42.508Z,102149.39
2019-03-26T23:54:18.879Z,102148.13
2019-03-26T23:56:53.517Z,102144.69
2019-03-26T23:59:28.369Z,102144.70
